createdAt,value
2016-10-14T00:00:06.234Z,933.76
2016-10-14T00:01:19.566Z,933.75
2016-10-14T00:02:33.484Z,933.72
2016-10-14T00:03:46.747Z,933.69
2016-10-14T00:04:59.985Z,933.64
2016-10-14T00:06:13.591Z,933.63
2016-10-14T00:07:26.683Z,933.61
2016-10-14T00:08:39.888Z,933.64
2016-10-14T00:09:53.104Z,933.55
2016-10-14T00:11:06.776Z,933.53
2016-10-14T00:12:20.416Z,933.48
2016-10-14T00:13:33.494Z,933.45
2016-10-14T00:14:47.207Z,933.4
2016-10-14T00:16:00.848Z,933.36
2016-10-14T00:17:14.194Z,933.3
2016-10-14T00:18:28.272Z,933.23
2016-10-14T00:19:41.451Z,933.19
2016-10-14T00:20:55.192Z,933.16
2016-10-14T00:22:08.869Z,933.12
2016-10-14T00:23:21.935Z,933.11
2016-10-14T00:24:34.972Z,933.12
2016-10-14T00:25:48.649Z,933.16
2016-10-14T00:27:02.312Z,933.13
2016-10-14T00:28:15.413Z,933.13
2016-10-14T00:29:29.080Z,933.21
2016-10-14T00:30:42.802Z,933.28
2016-10-14T00:31:56.481Z,933.39
2016-10-14T00:33:09.645Z,933.4
2016-10-14T00:34:22.786Z,933.44
2016-10-14T00:35:36.717Z,933.36
2016-10-14T00:36:49.765Z,933.36
2016-10-14T00:38:03.006Z,933.35
2016-10-14T00:39:14.965Z,933.35
2016-10-14T00:40:28.186Z,933.41
2016-10-14T00:41:42.080Z,933.38
2016-10-14T00:42:55.706Z,933.32
2016-10-14T00:44:09.357Z,933.35
2016-10-14T00:45:22.957Z,933.42
2016-10-14T00:46:36.040Z,933.47
2016-10-14T00:47:49.708Z,933.49
2016-10-14T00:49:03.432Z,933.47
2016-10-14T00:50:17.157Z,933.46
2016-10-14T00:51:30.821Z,933.42
2016-10-14T00:52:44.530Z,933.48
2016-10-14T00:53:58.505Z,933.38
2016-10-14T00:55:11.639Z,933.36
2016-10-14T00:56:24.783Z,933.3
2016-10-14T00:57:37.902Z,933.28
2016-10-14T00:58:51.779Z,933.28
2016-10-14T01:00:05.475Z,933.28
2016-10-14T01:01:18.523Z,933.24
2016-10-14T01:02:31.815Z,933.27
2016-10-14T01:03:44.780Z,933.3
2016-10-14T01:04:58.546Z,933.29
2016-10-14T01:06:12.171Z,933.33
2016-10-14T01:07:25.787Z,933.36
2016-10-14T01:08:39.807Z,933.29
2016-10-14T01:09:53.449Z,933.32
2016-10-14T01:11:07.187Z,933.33
2016-10-14T01:12:20.894Z,933.35
2016-10-14T01:13:34.589Z,933.31
2016-10-14T01:14:48.230Z,933.4
2016-10-14T01:16:01.882Z,933.37
2016-10-14T01:17:15.875Z,933.36
2016-10-14T01:18:29.668Z,933.36
2016-10-14T01:19:42.831Z,933.39
2016-10-14T01:20:56.481Z,933.41
2016-10-14T01:22:09.645Z,933.41
2016-10-14T01:23:22.319Z,933.41
2016-10-14T01:24:35.581Z,933.38
2016-10-14T01:25:49.430Z,933.35
2016-10-14T01:27:03.394Z,933.32
2016-10-14T01:28:17.012Z,933.32
2016-10-14T01:29:30.223Z,933.34
2016-10-14T01:30:43.999Z,933.35
2016-10-14T01:31:57.720Z,933.31
2016-10-14T01:33:10.847Z,933.31
2016-10-14T01:34:24.074Z,933.28
2016-10-14T01:35:37.292Z,933.39
2016-10-14T01:36:50.348Z,933.35
2016-10-14T01:38:03.924Z,933.35
2016-10-14T01:39:17.558Z,933.39
2016-10-14T01:40:31.160Z,933.4
2016-10-14T01:41:44.836Z,933.47
2016-10-14T01:42:58.000Z,933.53
2016-10-14T01:44:11.671Z,933.54
2016-10-14T01:45:25.383Z,933.52
2016-10-14T01:46:38.681Z,933.48
2016-10-14T01:47:52.677Z,933.5
2016-10-14T01:49:05.206Z,933.5
2016-10-14T01:50:18.795Z,933.5
2016-10-14T01:51:32.346Z,933.52
2016-10-14T01:52:45.661Z,933.56
2016-10-14T01:53:59.317Z,933.59
2016-10-14T01:55:12.942Z,933.57
2016-10-14T01:56:26.571Z,933.6
2016-10-14T01:57:39.201Z,933.57
2016-10-14T01:58:52.824Z,933.53
2016-10-14T02:00:06.434Z,933.53
2016-10-14T02:01:20.014Z,933.47
2016-10-14T02:02:33.177Z,933.41
2016-10-14T02:03:46.849Z,933.39
2016-10-14T02:05:00.576Z,933.37
2016-10-14T02:06:14.274Z,933.3
2016-10-14T02:07:27.481Z,933.29
2016-10-14T02:08:41.102Z,933.27
2016-10-14T02:09:54.737Z,933.3
2016-10-14T02:11:08.332Z,933.34
2016-10-14T02:12:21.988Z,933.35
2016-10-14T02:13:35.116Z,933.32
2016-10-14T02:14:48.726Z,933.36
2016-10-14T02:16:02.379Z,933.35
2016-10-14T02:17:15.452Z,933.35
2016-10-14T02:18:28.517Z,933.25
2016-10-14T02:19:42.145Z,933.24
2016-10-14T02:20:55.724Z,933.23
2016-10-14T02:22:08.878Z,933.18
2016-10-14T02:23:22.733Z,933.18
2016-10-14T02:24:36.366Z,933.13
2016-10-14T02:25:48.912Z,933.13
2016-10-14T02:27:02.504Z,933.12
2016-10-14T02:28:15.541Z,933.08
2016-10-14T02:29:29.131Z,933.08
2016-10-14T02:30:42.788Z,933.11
2016-10-14T02:31:55.847Z,933.06
2016-10-14T02:33:08.955Z,933.14
2016-10-14T02:34:22.022Z,933.11
2016-10-14T02:35:35.701Z,933.15
2016-10-14T02:36:48.804Z,933.13
2016-10-14T02:38:02.389Z,933.09
2016-10-14T02:39:15.962Z,933.11
2016-10-14T02:40:29.604Z,933.08
2016-10-14T02:41:43.230Z,933.05
2016-10-14T02:42:56.328Z,933.05
2016-10-14T02:44:09.386Z,933.03
2016-10-14T02:45:23.073Z,933.03
2016-10-14T02:46:36.683Z,933.05
2016-10-14T02:47:50.262Z,933.08
2016-10-14T02:49:03.935Z,933.09
2016-10-14T02:50:17.515Z,933.07
2016-10-14T02:51:30.769Z,933
2016-10-14T02:52:42.744Z,933
2016-10-14T02:53:55.291Z,933.01
2016-10-14T02:55:09.016Z,932.98
2016-10-14T02:56:22.039Z,932.91
2016-10-14T02:57:35.639Z,932.87
2016-10-14T02:58:49.397Z,932.88
2016-10-14T03:00:02.468Z,932.88
2016-10-14T03:01:15.750Z,932.93
2016-10-14T03:02:29.359Z,932.95
2016-10-14T03:03:42.447Z,932.99
2016-10-14T03:04:56.068Z,933
2016-10-14T03:06:09.647Z,932.95
2016-10-14T03:07:22.709Z,932.9
2016-10-14T03:08:36.257Z,932.88
2016-10-14T03:09:49.891Z,932.89
2016-10-14T03:11:02.974Z,932.92
2016-10-14T03:12:16.641Z,932.94
2016-10-14T03:13:29.700Z,932.96
2016-10-14T03:14:43.275Z,933.04
2016-10-14T03:15:56.337Z,933.04
2016-10-14T03:17:09.409Z,933.09
2016-10-14T03:18:22.938Z,933.06
2016-10-14T03:19:36.583Z,933.04
2016-10-14T03:20:50.287Z,933.02
2016-10-14T03:22:03.296Z,933.01
2016-10-14T03:23:16.413Z,933.02
2016-10-14T03:24:29.755Z,933
2016-10-14T03:25:43.360Z,932.96
2016-10-14T03:26:56.390Z,932.97
2016-10-14T03:28:09.988Z,933
2016-10-14T03:29:23.539Z,932.96
2016-10-14T03:30:36.891Z,932.99
2016-10-14T03:31:49.920Z,932.99
2016-10-14T03:33:03.538Z,932.95
2016-10-14T03:34:17.159Z,932.96
2016-10-14T03:35:30.713Z,932.95
2016-10-14T03:36:44.389Z,932.94
2016-10-14T03:37:57.437Z,932.95
2016-10-14T03:39:11.024Z,932.94
2016-10-14T03:40:38.335Z,932.9
2016-10-14T03:41:51.906Z,932.93
2016-10-14T03:43:04.965Z,932.93
2016-10-14T03:44:18.064Z,932.93
2016-10-14T03:45:31.709Z,932.92
2016-10-14T03:46:45.302Z,932.88
2016-10-14T03:47:58.898Z,932.97
2016-10-14T03:49:11.683Z,932.95
2016-10-14T03:50:24.711Z,932.92
2016-10-14T03:51:37.271Z,932.88
2016-10-14T03:52:50.800Z,932.83
2016-10-14T03:54:03.829Z,932.81
2016-10-14T03:55:16.531Z,932.75
2016-10-14T03:56:30.222Z,932.73
2016-10-14T03:57:43.819Z,932.73
2016-10-14T03:58:57.686Z,932.71
2016-10-14T04:00:11.298Z,932.79
2016-10-14T04:01:24.373Z,932.75
2016-10-14T04:02:37.446Z,932.78
2016-10-14T04:03:51.319Z,932.76
2016-10-14T04:05:04.409Z,932.75
2016-10-14T04:06:17.991Z,932.74
2016-10-14T04:07:31.085Z,932.74
2016-10-14T04:08:44.212Z,932.74
2016-10-14T04:09:57.821Z,932.73
2016-10-14T04:11:11.453Z,932.77
2016-10-14T04:12:25.073Z,932.79
2016-10-14T04:13:38.642Z,932.82
2016-10-14T04:14:52.234Z,932.79
2016-10-14T04:16:05.843Z,932.79
2016-10-14T04:17:19.574Z,932.76
2016-10-14T04:18:33.192Z,932.69
2016-10-14T04:19:46.799Z,932.69
2016-10-14T04:20:59.564Z,932.65
2016-10-14T04:22:13.360Z,932.68
2016-10-14T04:23:26.971Z,932.59
2016-10-14T04:24:40.656Z,932.66
2016-10-14T04:25:54.264Z,932.6
2016-10-14T04:27:07.932Z,932.64
2016-10-14T04:28:21.480Z,932.63
2016-10-14T04:29:35.059Z,932.6
2016-10-14T04:30:48.676Z,932.61
2016-10-14T04:32:01.269Z,932.61
2016-10-14T04:33:14.933Z,932.62
2016-10-14T04:34:28.514Z,932.61
2016-10-14T04:35:40.574Z,932.58
2016-10-14T04:36:54.205Z,932.54
2016-10-14T04:38:07.285Z,932.5
2016-10-14T04:39:20.923Z,932.49
2016-10-14T04:40:34.730Z,932.44
2016-10-14T04:41:47.783Z,932.41
2016-10-14T04:43:01.438Z,932.41
2016-10-14T04:44:15.186Z,932.34
2016-10-14T04:45:28.849Z,932.36
2016-10-14T04:46:42.417Z,932.39
2016-10-14T04:47:56.040Z,932.36
2016-10-14T04:49:09.653Z,932.29
2016-10-14T04:50:22.703Z,932.25
2016-10-14T04:51:36.314Z,932.23
2016-10-14T04:52:49.376Z,932.21
2016-10-14T04:54:03.010Z,932.23
2016-10-14T04:55:16.610Z,932.2
2016-10-14T04:56:29.661Z,932.23
2016-10-14T04:57:42.795Z,932.21
2016-10-14T04:58:56.606Z,932.21
2016-10-14T05:00:10.156Z,932.2
2016-10-14T05:01:23.763Z,932.23
2016-10-14T05:02:36.842Z,932.22
2016-10-14T05:03:50.465Z,932.27
2016-10-14T05:05:04.032Z,932.24
2016-10-14T05:06:17.044Z,932.29
2016-10-14T05:07:30.722Z,932.23
2016-10-14T05:08:44.373Z,932.23
2016-10-14T05:09:58.031Z,932.2
2016-10-14T05:11:11.582Z,932.16
2016-10-14T05:12:25.201Z,932.15
2016-10-14T05:13:38.801Z,932.13
2016-10-14T05:14:52.636Z,932.16
2016-10-14T05:16:06.269Z,932.13
2016-10-14T05:17:19.862Z,932.13
2016-10-14T05:18:33.467Z,932.08
2016-10-14T05:19:47.040Z,932.08
2016-10-14T05:21:00.655Z,932.09
2016-10-14T05:22:14.454Z,932.03
2016-10-14T05:23:28.079Z,932.03
2016-10-14T05:24:41.657Z,932.05
2016-10-14T05:25:55.263Z,932.07
2016-10-14T05:27:08.865Z,932.13
2016-10-14T05:28:22.676Z,932.06
2016-10-14T05:29:35.728Z,932.05
2016-10-14T05:30:49.508Z,932.04
2016-10-14T05:32:03.356Z,932
2016-10-14T05:33:17.018Z,932
2016-10-14T05:34:30.604Z,931.99
2016-10-14T05:35:44.182Z,931.93
2016-10-14T05:36:57.762Z,931.96
2016-10-14T05:38:11.365Z,931.89
2016-10-14T05:39:24.944Z,931.93
2016-10-14T05:40:38.595Z,931.88
2016-10-14T05:41:52.252Z,931.88
2016-10-14T05:43:05.911Z,931.87
2016-10-14T05:44:19.502Z,931.85
2016-10-14T05:45:33.134Z,931.83
2016-10-14T05:46:46.786Z,931.88
2016-10-14T05:48:00.513Z,931.86
2016-10-14T05:49:14.249Z,931.84
2016-10-14T05:50:27.857Z,931.84
2016-10-14T05:51:41.501Z,931.79
2016-10-14T05:52:55.196Z,931.77
2016-10-14T05:54:07.723Z,931.77
2016-10-14T05:55:21.305Z,931.75
2016-10-14T05:56:34.961Z,931.78
2016-10-14T05:57:47.519Z,931.82
2016-10-14T05:59:00.901Z,931.77
2016-10-14T06:00:14.575Z,931.79
2016-10-14T06:01:27.398Z,931.83
2016-10-14T06:02:41.006Z,931.81
2016-10-14T06:03:54.579Z,931.77
2016-10-14T06:05:08.157Z,931.77
2016-10-14T06:06:21.255Z,931.75
2016-10-14T06:07:34.873Z,931.74
2016-10-14T06:08:48.511Z,931.76
2016-10-14T06:10:02.076Z,931.79
2016-10-14T06:11:15.696Z,931.77
2016-10-14T06:12:29.256Z,931.71
2016-10-14T06:13:42.913Z,931.74
2016-10-14T06:14:56.547Z,931.74
2016-10-14T06:16:10.155Z,931.7
2016-10-14T06:17:23.782Z,931.66
2016-10-14T06:18:37.413Z,931.62
2016-10-14T06:19:51.044Z,931.65
2016-10-14T06:21:04.664Z,931.64
2016-10-14T06:22:17.764Z,931.59
2016-10-14T06:23:31.369Z,931.61
2016-10-14T06:24:44.988Z,931.56
2016-10-14T06:25:58.643Z,931.57
2016-10-14T06:27:11.707Z,931.6
2016-10-14T06:28:25.316Z,931.64
2016-10-14T06:29:38.982Z,931.62
2016-10-14T06:30:52.743Z,931.67
2016-10-14T06:32:06.315Z,931.65
2016-10-14T06:33:19.960Z,931.66
2016-10-14T06:34:33.596Z,931.69
2016-10-14T06:35:47.272Z,931.67
2016-10-14T06:37:00.861Z,931.68
2016-10-14T06:38:14.521Z,931.71
2016-10-14T06:39:28.163Z,931.69
2016-10-14T06:40:41.212Z,931.69
2016-10-14T06:41:54.813Z,931.66
2016-10-14T06:43:08.400Z,931.64
2016-10-14T06:44:21.933Z,931.62
2016-10-14T06:45:35.709Z,931.55
2016-10-14T06:46:49.282Z,931.56
2016-10-14T06:48:02.929Z,931.49
2016-10-14T06:49:16.549Z,931.47
2016-10-14T06:50:30.220Z,931.47
2016-10-14T06:51:43.819Z,931.45
2016-10-14T06:52:57.446Z,931.51
2016-10-14T06:54:11.050Z,931.5
2016-10-14T06:55:24.631Z,931.49
2016-10-14T06:56:38.487Z,931.49
2016-10-14T06:57:52.073Z,931.46
2016-10-14T06:59:05.717Z,931.47
2016-10-14T07:00:19.323Z,931.42
2016-10-14T07:01:32.914Z,931.44
2016-10-14T07:02:46.592Z,931.37
2016-10-14T07:03:59.637Z,931.36
2016-10-14T07:05:13.470Z,931.41
2016-10-14T07:06:27.069Z,931.46
2016-10-14T07:07:40.645Z,931.47
2016-10-14T07:08:54.281Z,931.5
2016-10-14T07:10:07.919Z,931.51
2016-10-14T07:11:21.332Z,931.47
2016-10-14T07:12:34.411Z,931.44
2016-10-14T07:13:47.972Z,931.44
2016-10-14T07:15:01.581Z,931.47
2016-10-14T07:16:14.677Z,931.51
2016-10-14T07:17:28.294Z,931.49
2016-10-14T07:18:41.937Z,931.53
2016-10-14T07:19:55.548Z,931.5
2016-10-14T07:21:09.836Z,931.52
2016-10-14T07:22:22.907Z,931.57
2016-10-14T07:23:36.466Z,931.56
2016-10-14T07:24:50.120Z,931.71
2016-10-14T07:26:03.715Z,931.67
2016-10-14T07:27:17.270Z,931.74
2016-10-14T07:28:30.897Z,931.76
2016-10-14T07:29:43.975Z,931.78
2016-10-14T07:30:57.605Z,931.78
2016-10-14T07:32:11.176Z,931.79
2016-10-14T07:33:24.802Z,931.83
2016-10-14T07:34:38.384Z,931.87
2016-10-14T07:35:51.986Z,931.93
2016-10-14T07:37:05.524Z,931.95
2016-10-14T07:38:19.127Z,931.96
2016-10-14T07:39:32.192Z,931.99
2016-10-14T07:40:46.015Z,932.02
2016-10-14T07:41:59.642Z,932.02
2016-10-14T07:43:13.449Z,932.07
2016-10-14T07:44:27.042Z,932.07
2016-10-14T07:45:40.727Z,932.04
2016-10-14T07:46:54.354Z,932.09
2016-10-14T07:48:08.013Z,932.19
2016-10-14T07:49:21.642Z,932.2
2016-10-14T07:50:35.285Z,932.23
2016-10-14T07:51:48.925Z,932.24
2016-10-14T07:53:02.032Z,932.33
2016-10-14T07:54:15.692Z,932.32
2016-10-14T07:55:29.247Z,932.38
2016-10-14T07:56:42.834Z,932.39
2016-10-14T07:57:56.414Z,932.39
2016-10-14T07:59:10.198Z,932.41
2016-10-14T08:00:23.831Z,932.44
2016-10-14T08:01:37.902Z,932.45
2016-10-14T08:02:51.501Z,932.4
2016-10-14T08:04:05.072Z,932.4
2016-10-14T08:05:18.673Z,932.4
2016-10-14T08:06:32.272Z,932.4
2016-10-14T08:07:45.911Z,932.4
2016-10-14T08:08:59.575Z,932.37
2016-10-14T08:10:13.230Z,932.42
2016-10-14T08:11:26.295Z,932.44
2016-10-14T08:12:39.367Z,932.47
2016-10-14T08:13:52.957Z,932.48
2016-10-14T08:15:06.515Z,932.45
2016-10-14T08:16:20.106Z,932.43
2016-10-14T08:17:33.698Z,932.42
2016-10-14T08:18:47.309Z,932.43
2016-10-14T08:20:00.920Z,932.46
2016-10-14T08:21:14.525Z,932.48
2016-10-14T08:22:28.154Z,932.51
2016-10-14T08:23:41.820Z,932.48
2016-10-14T08:24:55.653Z,932.49
2016-10-14T08:26:09.212Z,932.55
2016-10-14T08:27:22.891Z,932.54
2016-10-14T08:28:36.479Z,932.56
2016-10-14T08:29:50.154Z,932.59
2016-10-14T08:31:03.791Z,932.63
2016-10-14T08:32:17.398Z,932.66
2016-10-14T08:33:31.012Z,932.65
2016-10-14T08:34:44.108Z,932.67
2016-10-14T08:35:57.689Z,932.64
2016-10-14T08:37:11.371Z,932.68
2016-10-14T08:38:24.939Z,932.7
2016-10-14T08:39:38.529Z,932.77
2016-10-14T08:40:52.127Z,932.8
2016-10-14T08:42:05.711Z,932.85
2016-10-14T08:43:19.363Z,932.89
2016-10-14T08:44:33.044Z,932.96
2016-10-14T08:45:46.656Z,933.02
2016-10-14T08:47:00.415Z,933.04
2016-10-14T08:48:14.005Z,933.04
2016-10-14T08:49:27.640Z,933.04
2016-10-14T08:50:41.232Z,933.03
2016-10-14T08:51:54.380Z,933.09
2016-10-14T08:53:08.051Z,933.1
2016-10-14T08:54:21.157Z,933.12
2016-10-14T08:55:34.332Z,933.14
2016-10-14T08:56:47.394Z,933.15
2016-10-14T08:58:00.983Z,933.12
2016-10-14T08:59:14.642Z,933.12
2016-10-14T09:00:28.194Z,933.18
2016-10-14T09:01:41.831Z,933.21
2016-10-14T09:02:55.551Z,933.25
2016-10-14T09:04:09.177Z,933.18
2016-10-14T09:05:22.930Z,933.16
2016-10-14T09:06:36.494Z,933.15
2016-10-14T09:07:49.544Z,933.11
2016-10-14T09:09:03.120Z,933.12
2016-10-14T09:10:16.685Z,933.08
2016-10-14T09:11:30.299Z,933.08
2016-10-14T09:12:43.937Z,933.07
2016-10-14T09:13:57.594Z,933.13
2016-10-14T09:15:11.240Z,933.09
2016-10-14T09:16:25.063Z,933.13
2016-10-14T09:17:38.688Z,933.1
2016-10-14T09:18:52.307Z,933.12
2016-10-14T09:20:05.962Z,933.14
2016-10-14T09:21:19.832Z,933.17
2016-10-14T09:22:33.443Z,933.22
2016-10-14T09:23:47.036Z,933.18
2016-10-14T09:25:00.611Z,933.22
2016-10-14T09:26:14.271Z,933.2
2016-10-14T09:27:27.389Z,933.2
2016-10-14T09:28:40.975Z,933.23
2016-10-14T09:29:54.620Z,933.27
2016-10-14T09:31:08.257Z,933.3
2016-10-14T09:32:21.883Z,933.26
2016-10-14T09:33:35.517Z,933.24
2016-10-14T09:34:49.173Z,933.2
2016-10-14T09:36:02.842Z,933.17
2016-10-14T09:37:16.678Z,933.14
2016-10-14T09:38:30.297Z,933.15
2016-10-14T09:39:43.951Z,933.18
2016-10-14T09:40:57.639Z,933.21
2016-10-14T09:42:10.708Z,933.29
2016-10-14T09:43:24.334Z,933.35
2016-10-14T09:44:37.994Z,933.4
2016-10-14T09:45:51.566Z,933.41
2016-10-14T09:47:05.243Z,933.43
2016-10-14T09:48:18.879Z,933.47
2016-10-14T09:49:32.509Z,933.51
2016-10-14T09:50:46.060Z,933.52
2016-10-14T09:51:59.406Z,933.57
2016-10-14T09:53:12.445Z,933.61
2016-10-14T09:54:26.057Z,933.58
2016-10-14T09:55:39.633Z,933.54
2016-10-14T09:56:53.243Z,933.56
2016-10-14T09:58:06.267Z,933.63
2016-10-14T09:59:19.843Z,933.66
2016-10-14T10:00:32.899Z,933.74
2016-10-14T10:01:46.581Z,933.76
2016-10-14T10:03:00.349Z,933.75
2016-10-14T10:04:13.958Z,933.77
2016-10-14T10:05:27.438Z,933.78
2016-10-14T10:06:40.811Z,933.77
2016-10-14T10:07:54.455Z,933.79
2016-10-14T10:09:08.169Z,933.76
2016-10-14T10:10:21.820Z,933.84
2016-10-14T10:11:35.450Z,933.85
2016-10-14T10:12:49.036Z,933.92
2016-10-14T10:14:02.648Z,933.93
2016-10-14T10:15:16.277Z,933.95
2016-10-14T10:16:29.928Z,933.96
2016-10-14T10:17:43.547Z,933.96
2016-10-14T10:18:57.170Z,934.02
2016-10-14T10:20:10.728Z,934.06
2016-10-14T10:21:23.845Z,934.11
2016-10-14T10:22:36.913Z,934.09
2016-10-14T10:23:50.229Z,934.09
2016-10-14T10:25:03.848Z,934.13
2016-10-14T10:26:16.946Z,934.1
2016-10-14T10:27:30.341Z,934.11
2016-10-14T10:28:43.456Z,934.1
2016-10-14T10:29:57.057Z,934.13
2016-10-14T10:31:10.175Z,934.13
2016-10-14T10:32:23.783Z,934.12
2016-10-14T10:33:36.897Z,934.13
2016-10-14T10:34:50.558Z,934.1
2016-10-14T10:36:04.264Z,934.11
2016-10-14T10:37:17.957Z,934.13
2016-10-14T10:38:31.675Z,934.14
2016-10-14T10:39:44.849Z,934.1
2016-10-14T10:40:58.518Z,934.13
2016-10-14T10:42:12.404Z,934.12
2016-10-14T10:43:26.017Z,934.1
2016-10-14T10:44:39.595Z,934.14
2016-10-14T10:45:53.287Z,934.17
2016-10-14T10:47:06.894Z,934.2
2016-10-14T10:48:20.525Z,934.2
2016-10-14T10:49:33.868Z,934.22
2016-10-14T10:50:47.025Z,934.19
2016-10-14T10:52:00.736Z,934.18
2016-10-14T10:53:14.401Z,934.2
2016-10-14T10:54:28.045Z,934.21
2016-10-14T10:55:41.201Z,934.21
2016-10-14T10:56:54.859Z,934.26
2016-10-14T10:58:08.509Z,934.23
2016-10-14T10:59:21.576Z,934.25
2016-10-14T11:00:35.269Z,934.25
2016-10-14T11:01:48.925Z,934.29
2016-10-14T11:03:02.779Z,934.31
2016-10-14T11:04:16.583Z,934.32
2016-10-14T11:05:30.203Z,934.35
2016-10-14T11:06:43.893Z,934.36
2016-10-14T11:07:57.473Z,934.35
2016-10-14T11:09:11.125Z,934.41
2016-10-14T11:10:24.785Z,934.45
2016-10-14T11:11:38.441Z,934.43
2016-10-14T11:12:52.073Z,934.43
2016-10-14T11:14:05.693Z,934.42
2016-10-14T11:15:18.852Z,934.4
2016-10-14T11:16:32.564Z,934.4
2016-10-14T11:17:45.929Z,934.38
2016-10-14T11:18:59.628Z,934.45
2016-10-14T11:20:13.261Z,934.42
2016-10-14T11:21:26.867Z,934.4
2016-10-14T11:22:40.495Z,934.36
2016-10-14T11:23:53.598Z,934.35
2016-10-14T11:25:07.246Z,934.38
2016-10-14T11:26:20.917Z,934.35
2016-10-14T11:27:34.642Z,934.38
2016-10-14T11:28:48.308Z,934.31
2016-10-14T11:30:01.457Z,934.35
2016-10-14T11:31:15.148Z,934.29
2016-10-14T11:32:28.767Z,934.28
2016-10-14T11:33:42.418Z,934.23
2016-10-14T11:34:56.065Z,934.26
2016-10-14T11:36:09.741Z,934.21
2016-10-14T11:37:22.844Z,934.18
2016-10-14T11:38:35.939Z,934.17
2016-10-14T11:39:49.804Z,934.21
2016-10-14T11:41:03.443Z,934.18
2016-10-14T11:42:17.038Z,934.19
2016-10-14T11:43:31.074Z,934.17
2016-10-14T11:44:44.788Z,934.17
2016-10-14T11:45:58.433Z,934.25
2016-10-14T11:47:12.081Z,934.27
2016-10-14T11:48:25.915Z,934.3
2016-10-14T11:49:39.462Z,934.25
2016-10-14T11:50:53.084Z,934.29
2016-10-14T11:52:06.751Z,934.31
2016-10-14T11:53:20.351Z,934.3
2016-10-14T11:54:33.951Z,934.36
2016-10-14T11:55:47.596Z,934.34
2016-10-14T11:57:01.173Z,934.32
2016-10-14T11:58:14.789Z,934.35
2016-10-14T11:59:28.554Z,934.35
2016-10-14T12:00:42.187Z,934.34
2016-10-14T12:01:56.171Z,934.31
2016-10-14T12:03:09.806Z,934.42
2016-10-14T12:04:22.955Z,934.38
2016-10-14T12:05:36.253Z,934.38
2016-10-14T12:06:49.850Z,934.37
2016-10-14T12:08:02.912Z,934.47
2016-10-14T12:09:16.719Z,934.42
2016-10-14T12:10:30.377Z,934.42
2016-10-14T12:11:44.164Z,934.35
2016-10-14T12:12:57.716Z,934.36
2016-10-14T12:14:11.325Z,934.42
2016-10-14T12:15:24.966Z,934.47
2016-10-14T12:16:38.611Z,934.52
2016-10-14T12:17:51.196Z,934.5
2016-10-14T12:19:04.836Z,934.47
2016-10-14T12:20:18.437Z,934.48
2016-10-14T12:21:32.066Z,934.4
2016-10-14T12:22:45.648Z,934.44
2016-10-14T12:23:59.299Z,934.49
2016-10-14T12:25:12.438Z,934.43
2016-10-14T12:26:26.073Z,934.48
2016-10-14T12:27:39.692Z,934.43
2016-10-14T12:28:52.913Z,934.39
2016-10-14T12:30:06.007Z,934.41
2016-10-14T12:31:20.033Z,934.41
2016-10-14T12:32:33.622Z,934.36
2016-10-14T12:33:47.358Z,934.32
2016-10-14T12:35:00.997Z,934.33
2016-10-14T12:36:14.634Z,934.34
2016-10-14T12:37:28.255Z,934.27
2016-10-14T12:38:41.913Z,934.32
2016-10-14T12:39:55.517Z,934.26
2016-10-14T12:41:09.144Z,934.23
2016-10-14T12:42:22.981Z,934.23
2016-10-14T12:43:36.013Z,934.23
2016-10-14T12:44:49.817Z,934.24
2016-10-14T12:46:03.171Z,934.25
2016-10-14T12:47:16.821Z,934.18
2016-10-14T12:48:30.390Z,934.18
2016-10-14T12:49:44.056Z,934.21
2016-10-14T12:50:57.207Z,934.19
2016-10-14T12:52:10.807Z,934.28
2016-10-14T12:53:23.870Z,934.13
2016-10-14T12:54:36.954Z,934.21
2016-10-14T12:55:50.094Z,934.2
2016-10-14T12:57:03.998Z,934.21
2016-10-14T12:58:17.065Z,934.18
2016-10-14T12:59:30.619Z,934.14
2016-10-14T13:00:44.254Z,934.14
2016-10-14T13:01:57.908Z,934.12
2016-10-14T13:03:11.566Z,934.11
2016-10-14T13:04:24.670Z,934.12
2016-10-14T13:05:38.292Z,934.1
2016-10-14T13:06:51.962Z,934.07
2016-10-14T13:08:05.056Z,934.14
2016-10-14T13:09:18.620Z,934.16
2016-10-14T13:10:32.187Z,934.13
2016-10-14T13:11:45.789Z,934.13
2016-10-14T13:12:59.449Z,934.11
2016-10-14T13:14:11.984Z,934.29
2016-10-14T13:15:25.659Z,934.19
2016-10-14T13:16:38.209Z,934.09
2016-10-14T13:17:50.804Z,934.13
2016-10-14T13:19:04.503Z,934.1
2016-10-14T13:20:18.083Z,934.11
2016-10-14T13:21:31.781Z,934.15
2016-10-14T13:22:45.663Z,934.16
2016-10-14T13:23:59.253Z,934.1
2016-10-14T13:25:12.877Z,934.15
2016-10-14T13:26:25.508Z,934.13
2016-10-14T13:27:39.168Z,934.17
2016-10-14T13:28:52.329Z,934.12
2016-10-14T13:30:05.412Z,934.1
2016-10-14T13:31:19.075Z,934.02
2016-10-14T13:32:32.157Z,933.97
2016-10-14T13:33:45.204Z,933.97
2016-10-14T13:34:58.908Z,933.9
2016-10-14T13:36:11.989Z,933.95
2016-10-14T13:37:25.660Z,933.96
2016-10-14T13:38:39.288Z,934.03
2016-10-14T13:39:53.001Z,934.03
2016-10-14T13:41:06.099Z,934.02
2016-10-14T13:42:18.733Z,933.83
2016-10-14T13:43:32.403Z,934.04
2016-10-14T13:44:45.477Z,933.98
2016-10-14T13:45:59.037Z,933.9
2016-10-14T13:47:12.133Z,933.88
2016-10-14T13:48:25.303Z,933.85
2016-10-14T13:49:39.002Z,933.98
2016-10-14T13:50:51.556Z,933.9
2016-10-14T13:52:04.716Z,933.79
2016-10-14T13:53:17.772Z,933.75
2016-10-14T13:54:31.392Z,933.77
2016-10-14T13:55:44.462Z,933.83
2016-10-14T13:56:58.140Z,933.71
2016-10-14T13:58:11.802Z,933.61
2016-10-14T13:59:25.461Z,933.68
2016-10-14T14:00:38.598Z,933.64
2016-10-14T14:01:51.724Z,933.77
2016-10-14T14:03:04.808Z,933.63
2016-10-14T14:04:18.449Z,933.66
2016-10-14T14:05:31.556Z,933.65
2016-10-14T14:06:45.173Z,933.68
2016-10-14T14:07:58.846Z,933.71
2016-10-14T14:09:12.479Z,933.67
2016-10-14T14:10:25.654Z,933.68
2016-10-14T14:11:39.352Z,933.52
2016-10-14T14:12:52.966Z,933.5
2016-10-14T14:14:06.680Z,933.58
2016-10-14T14:15:19.777Z,933.59
2016-10-14T14:16:33.418Z,933.68
2016-10-14T14:17:46.998Z,933.7
2016-10-14T14:19:00.057Z,933.62
2016-10-14T14:20:13.688Z,933.67
2016-10-14T14:21:27.397Z,933.69
2016-10-14T14:22:40.444Z,933.58
2016-10-14T14:23:54.074Z,933.64
2016-10-14T14:25:06.664Z,933.66
2016-10-14T14:26:20.317Z,933.7
2016-10-14T14:27:33.703Z,933.63
2016-10-14T14:28:46.772Z,933.71
2016-10-14T14:30:00.409Z,933.63
2016-10-14T14:31:14.050Z,933.56
2016-10-14T14:32:28.083Z,933.62
2016-10-14T14:33:41.713Z,933.64
2016-10-14T14:34:55.389Z,933.71
2016-10-14T14:36:09.110Z,933.74
2016-10-14T14:37:22.444Z,933.66
2016-10-14T14:38:36.034Z,933.62
2016-10-14T14:39:49.906Z,933.67
2016-10-14T14:41:03.628Z,933.68
2016-10-14T14:42:17.287Z,933.71
2016-10-14T14:43:30.963Z,933.68
2016-10-14T14:44:44.074Z,933.69
2016-10-14T14:45:57.664Z,933.58
2016-10-14T14:47:11.343Z,933.59
2016-10-14T14:48:25.205Z,933.56
2016-10-14T14:49:38.887Z,933.61
2016-10-14T14:50:51.504Z,933.57
2016-10-14T14:52:05.125Z,933.55
2016-10-14T14:53:18.751Z,933.55
2016-10-14T14:54:31.837Z,933.63
2016-10-14T14:55:44.977Z,933.56
2016-10-14T14:56:58.079Z,933.63
2016-10-14T14:58:11.131Z,933.72
2016-10-14T14:59:24.752Z,933.65
2016-10-14T15:00:37.316Z,933.65
2016-10-14T15:01:51.020Z,933.61
2016-10-14T15:03:04.653Z,933.63
2016-10-14T15:04:16.730Z,933.65
2016-10-14T15:05:30.399Z,933.6
2016-10-14T15:06:44.085Z,933.6
2016-10-14T15:07:57.711Z,933.72
2016-10-14T15:09:11.386Z,933.64
2016-10-14T15:10:25.024Z,933.57
2016-10-14T15:11:38.644Z,933.68
2016-10-14T15:12:51.672Z,933.73
2016-10-14T15:14:05.008Z,933.64
2016-10-14T15:15:18.125Z,933.61
2016-10-14T15:16:31.762Z,933.61
2016-10-14T15:17:45.530Z,933.43
2016-10-14T15:18:59.203Z,933.41
2016-10-14T15:20:12.890Z,933.45